Time;durP1;ratioP1;P1;durP2;ratioP2;P2;SDS_P1;SDS_P2;PMS_P1;PMS_P2;Temp;Humidity;BMP_temperature;BMP_pressure;BME280_temperature;BME280_humidity;BME280_pressure;Samples;Min_cycle;Max_cycle;Signal;HPM_P1;HPM_P2
2023/07/02 02:04:00;;;;;;;11.20;7.12;;;;;;;;;;4341659;33;20052;-76
2023/07/02 02:06:26;;;;;;;12.52;7.97;;;;;;;;;;4309463;33;20059;-78
2023/07/02 02:08:52;;;;;;;10.60;7.32;;;;;;;;;;4309282;33;20086;-76
2023/07/02 02:11:19;;;;;;;10.07;7.30;;;;;;;;;;4281211;33;20041;-76
2023/07/02 02:13:45;;;;;;;13.27;8.20;;;;;;;;;;4281057;33;20050;-76
2023/07/02 02:16:11;;;;;;;8.93;6.75;;;;;;;;;;4279740;33;20045;-76
2023/07/02 02:18:38;;;;;;;10.18;7.50;;;;;;;;;;4279336;33;20049;-77
2023/07/02 02:21:04;;;;;;;14.20;6.62;;;;;;;;;;4280499;33;20071;-76
2023/07/02 02:23:30;;;;;;;11.45;7.50;;;;;;;;;;4279935;33;20049;-76
2023/07/02 02:25:58;;;;;;;12.60;8.98;;;;;;;;;;4281196;33;20108;-76
2023/07/02 02:28:24;;;;;;;11.02;7.75;;;;;;;;;;4280365;33;20045;-77
2023/07/02 02:30:50;;;;;;;9.32;6.93;;;;;;;;;;4278880;33;20071;-76
2023/07/02 02:33:17;;;;;;;11.02;7.70;;;;;;;;;;4281009;33;20389;-76
2023/07/02 02:35:45;;;;;;;16.48;7.30;;;;;;;;;;4265545;33;20042;-77
2023/07/02 02:38:14;;;;;;;11.12;7.43;;;;;;;;;;4289155;33;20041;-76
2023/07/02 02:40:40;;;;;;;11.73;7.18;;;;;;;;;;4293958;33;20037;-77
2023/07/02 02:43:08;;;;;;;15.23;7.82;;;;;;;;;;4307120;33;20262;-76
2023/07/02 02:45:36;;;;;;;14.60;6.65;;;;;;;;;;4309648;33;20033;-76
2023/07/02 02:48:02;;;;;;;11.30;7.10;;;;;;;;;;4309600;33;20037;-77
2023/07/02 02:50:28;;;;;;;12.43;7.62;;;;;;;;;;4308408;33;20093;-76
2023/07/02 02:52:54;;;;;;;10.77;7.35;;;;;;;;;;4307974;33;20053;-78
2023/07/02 02:55:20;;;;;;;10.02;6.10;;;;;;;;;;4309714;33;20756;-76
2023/07/02 02:57:47;;;;;;;8.80;6.68;;;;;;;;;;4309394;33;20044;-77
2023/07/02 03:00:13;;;;;;;9.43;6.78;;;;;;;;;;4309571;33;20029;-76
2023/07/02 03:02:39;;;;;;;12.35;7.90;;;;;;;;;;4307644;33;20045;-74
2023/07/02 03:05:06;;;;;;;11.57;7.12;;;;;;;;;;4292025;33;20041;-76
2023/07/02 03:07:32;;;;;;;11.60;6.87;;;;;;;;;;4309495;33;20078;-75
2023/07/02 03:09:58;;;;;;;10.05;7.43;;;;;;;;;;4309360;33;20069;-75
2023/07/02 03:12:26;;;;;;;10.25;7.10;;;;;;;;;;4313696;33;20065;-77
2023/07/02 03:14:54;;;;;;;11.25;8.10;;;;;;;;;;4337173;33;20062;-77
2023/07/02 03:17:20;;;;;;;13.35;6.97;;;;;;;;;;4338489;33;20912;-76
2023/07/02 03:19:52;;;;;;;9.35;6.57;;;;;;;;;;4338544;33;20040;-77
2023/07/02 03:22:19;;;;;;;12.20;6.68;;;;;;;;;;4337255;33;20058;-77
2023/07/02 03:24:45;;;;;;;14.18;6.78;;;;;;;;;;4337775;33;20377;-78
2023/07/02 03:27:11;;;;;;;9.18;6.15;;;;;;;;;;4337166;33;20044;-77
2023/07/02 03:29:38;;;;;;;10.98;7.28;;;;;;;;;;4338497;33;20069;-76
2023/07/02 03:32:04;;;;;;;9.35;6.05;;;;;;;;;;4337499;33;20066;-76
2023/07/02 03:34:30;;;;;;;11.02;6.95;;;;;;;;;;4338217;33;20062;-77
2023/07/02 03:36:57;;;;;;;15.48;6.57;;;;;;;;;;4340427;33;20070;-77
2023/07/02 03:39:22;;;;;;;9.30;6.30;;;;;;;;;;4338950;33;20111;-77
2023/07/02 03:41:49;;;;;;;9.55;6.70;;;;;;;;;;4341063;33;20056;-76
2023/07/02 03:44:15;;;;;;;11.93;7.07;;;;;;;;;;4340186;33;20332;-77
2023/07/02 03:46:41;;;;;;;8.35;5.87;;;;;;;;;;4340828;33;20433;-76
2023/07/02 03:49:07;;;;;;;10.02;6.20;;;;;;;;;;4340659;33;20061;-77
2023/07/02 03:51:33;;;;;;;10.73;6.75;;;;;;;;;;4338980;33;20483;-77
2023/07/02 03:53:59;;;;;;;9.93;6.55;;;;;;;;;;4322891;33;20059;-77
2023/07/02 03:56:26;;;;;;;9.23;6.85;;;;;;;;;;4323461;33;20117;-76
2023/07/02 03:58:52;;;;;;;13.15;7.75;;;;;;;;;;4323463;33;20032;-77
2023/07/02 04:01:19;;;;;;;10.27;7.15;;;;;;;;;;4322391;33;20084;-77
2023/07/02 04:03:49;;;;;;;11.25;7.10;;;;;;;;;;4321591;33;20044;-77
2023/07/02 04:06:15;;;;;;;10.60;7.37;;;;;;;;;;4323720;33;20054;-76
2023/07/02 04:08:41;;;;;;;13.57;7.03;;;;;;;;;;4322780;33;20505;-77
2023/07/02 04:11:07;;;;;;;11.57;6.78;;;;;;;;;;4323480;33;20041;-76
2023/07/02 04:13:34;;;;;;;19.08;7.40;;;;;;;;;;4321161;33;20056;-76
2023/07/02 04:15:59;;;;;;;14.63;7.45;;;;;;;;;;4321948;33;20032;-77
2023/07/02 04:18:26;;;;;;;15.93;7.05;;;;;;;;;;4323419;33;20091;-77
2023/07/02 04:20:52;;;;;;;11.10;7.05;;;;;;;;;;4323441;33;20059;-76
2023/07/02 04:23:18;;;;;;;14.40;7.35;;;;;;;;;;4280118;33;20053;-75
2023/07/02 04:25:44;;;;;;;12.95;6.93;;;;;;;;;;4279743;33;20063;-77
2023/07/02 04:28:10;;;;;;;13.88;7.43;;;;;;;;;;4279759;33;20055;-75
2023/07/02 04:30:36;;;;;;;20.17;7.82;;;;;;;;;;4250104;33;20793;-75
2023/07/02 04:33:03;;;;;;;12.30;7.70;;;;;;;;;;4250440;33;20047;-75
2023/07/02 04:35:29;;;;;;;11.93;6.85;;;;;;;;;;4251990;33;20077;-75
2023/07/02 04:37:55;;;;;;;11.93;7.70;;;;;;;;;;4249978;33;20211;-77
2023/07/02 04:40:28;;;;;;;9.50;6.80;;;;;;;;;;4247000;33;20105;-76
2023/07/02 04:42:57;;;;;;;11.43;6.87;;;;;;;;;;4266586;33;20045;-76
2023/07/02 04:45:31;;;;;;;11.95;6.65;;;;;;;;;;4267729;33;20064;-76
2023/07/02 04:48:00;;;;;;;13.77;6.62;;;;;;;;;;4264601;33;20493;-77
2023/07/02 04:50:26;;;;;;;9.82;6.68;;;;;;;;;;4265099;33;20532;-75
2023/07/02 04:52:53;;;;;;;10.55;6.75;;;;;;;;;;4236319;33;20208;-76
2023/07/02 04:55:19;;;;;;;12.73;6.45;;;;;;;;;;4264860;33;20037;-76
2023/07/02 04:57:46;;;;;;;18.90;6.37;;;;;;;;;;4267675;33;20057;-76
2023/07/02 05:00:12;;;;;;;19.25;6.85;;;;;;;;;;4265638;33;20030;-78
2023/07/02 05:02:39;;;;;;;10.63;6.72;;;;;;;;;;4291627;33;20056;-77
2023/07/02 05:05:08;;;;;;;15.05;6.70;;;;;;;;;;4296419;33;20079;-77
2023/07/02 05:07:35;;;;;;;9.15;6.80;;;;;;;;;;4283054;33;20052;-77
2023/07/02 05:10:04;;;;;;;18.62;6.30;;;;;;;;;;4295348;33;20082;-77
2023/07/02 05:12:31;;;;;;;9.70;6.57;;;;;;;;;;4293747;33;20063;-76
2023/07/02 05:15:00;;;;;;;11.70;5.87;;;;;;;;;;4266358;33;20034;-76
2023/07/02 05:17:26;;;;;;;15.18;5.60;;;;;;;;;;4267282;33;20055;-76
2023/07/02 05:19:52;;;;;;;11.90;6.25;;;;;;;;;;4267450;33;20596;-76
2023/07/02 05:22:19;;;;;;;6.05;5.12;;;;;;;;;;4264589;33;20062;-78
2023/07/02 05:24:46;;;;;;;10.60;5.45;;;;;;;;;;4302361;33;20107;-76
2023/07/02 05:27:12;;;;;;;11.32;6.57;;;;;;;;;;4310253;33;20045;-76
2023/07/02 05:29:38;;;;;;;12.00;6.25;;;;;;;;;;4281311;33;20389;-76
2023/07/02 05:32:04;;;;;;;8.85;5.78;;;;;;;;;;4281611;33;20067;-76
2023/07/02 05:34:30;;;;;;;11.12;5.18;;;;;;;;;;4279653;33;20032;-78
2023/07/02 05:36:57;;;;;;;10.15;6.10;;;;;;;;;;4267219;33;20277;-76
2023/07/02 05:39:23;;;;;;;15.68;5.80;;;;;;;;;;4267179;33;20446;-76
2023/07/02 05:41:49;;;;;;;8.57;5.07;;;;;;;;;;4251703;33;20465;-76
2023/07/02 05:44:15;;;;;;;13.27;6.15;;;;;;;;;;4267049;33;20041;-74
2023/07/02 05:46:42;;;;;;;9.60;4.95;;;;;;;;;;4276152;33;20473;-74
2023/07/02 05:49:08;;;;;;;8.15;5.35;;;;;;;;;;4269426;33;20050;-74
2023/07/02 05:51:34;;;;;;;8.15;5.15;;;;;;;;;;4280639;33;20071;-74
2023/07/02 05:54:00;;;;;;;6.80;4.78;;;;;;;;;;4281261;33;20448;-73
2023/07/02 05:56:27;;;;;;;11.27;4.82;;;;;;;;;;4278948;33;20053;-74
2023/07/02 05:58:53;;;;;;;14.45;5.03;;;;;;;;;;4279023;33;20045;-73
2023/07/02 06:01:19;;;;;;;12.98;4.87;;;;;;;;;;4265074;33;20050;-74
2023/07/02 06:03:45;;;;;;;6.95;5.12;;;;;;;;;;4266606;33;20034;-74
2023/07/02 06:06:11;;;;;;;13.68;5.37;;;;;;;;;;4266722;33;20063;-74
2023/07/02 06:08:37;;;;;;;10.43;6.28;;;;;;;;;;4275810;33;20427;-77
2023/07/02 06:11:04;;;;;;;5.75;5.18;;;;;;;;;;4279084;33;20065;-74
2023/07/02 06:13:30;;;;;;;5.12;4.53;;;;;;;;;;4291814;33;20083;-74
2023/07/02 06:15:56;;;;;;;20.25;5.20;;;;;;;;;;4294702;33;20048;-74
2023/07/02 06:18:23;;;;;;;7.28;5.18;;;;;;;;;;4295198;33;20063;-74
2023/07/02 06:20:50;;;;;;;6.97;4.65;;;;;;;;;;4292997;33;20488;-77
2023/07/02 06:23:16;;;;;;;7.80;4.97;;;;;;;;;;4295192;33;20536;-74
2023/07/02 06:25:42;;;;;;;14.15;4.78;;;;;;;;;;4307871;33;20472;-75
2023/07/02 06:28:09;;;;;;;7.60;5.47;;;;;;;;;;4309633;33;20150;-74
2023/07/02 06:30:35;;;;;;;12.73;4.55;;;;;;;;;;4307698;33;20789;-73
2023/07/02 06:33:01;;;;;;;6.87;3.80;;;;;;;;;;4318902;33;20044;-75
2023/07/02 06:35:27;;;;;;;6.30;4.25;;;;;;;;;;4323982;33;20569;-74
2023/07/02 06:37:53;;;;;;;5.62;4.22;;;;;;;;;;4324237;33;20036;-74
2023/07/02 06:40:22;;;;;;;3.72;3.22;;;;;;;;;;4323350;33;20210;-75
2023/07/02 06:42:48;;;;;;;3.70;3.40;;;;;;;;;;4322316;33;20095;-74
2023/07/02 06:45:14;;;;;;;3.83;3.22;;;;;;;;;;4322465;33;20060;-78
2023/07/02 06:47:40;;;;;;;13.18;4.18;;;;;;;;;;4325772;33;20037;-74
2023/07/02 06:50:07;;;;;;;5.47;3.25;;;;;;;;;;4326192;33;20106;-76
2023/07/02 06:52:33;;;;;;;3.33;3.03;;;;;;;;;;4326448;33;20062;-75
2023/07/02 06:54:59;;;;;;;6.22;3.58;;;;;;;;;;4325700;33;20048;-74
2023/07/02 06:57:25;;;;;;;4.03;3.30;;;;;;;;;;4324253;33;20449;-74
2023/07/02 06:59:51;;;;;;;10.27;3.58;;;;;;;;;;4326232;33;20492;-74
2023/07/02 07:02:17;;;;;;;13.90;3.22;;;;;;;;;;4335550;33;20051;-75
2023/07/02 07:04:44;;;;;;;3.75;2.80;;;;;;;;;;4341023;33;20062;-74
2023/07/02 07:07:09;;;;;;;5.03;2.97;;;;;;;;;;4340050;33;20116;-76
2023/07/02 07:09:36;;;;;;;7.50;3.37;;;;;;;;;;4339248;33;20385;-73
2023/07/02 07:12:03;;;;;;;8.27;3.35;;;;;;;;;;4340404;33;20036;-74
2023/07/02 07:14:29;;;;;;;6.15;3.40;;;;;;;;;;4341249;33;20047;-75
2023/07/02 07:16:55;;;;;;;3.83;3.00;;;;;;;;;;4340690;33;20492;-74
2023/07/02 07:19:21;;;;;;;3.42;3.12;;;;;;;;;;4339012;33;20172;-74
2023/07/02 07:21:47;;;;;;;7.37;3.75;;;;;;;;;;4340936;33;20375;-74
2023/07/02 07:24:13;;;;;;;3.90;2.92;;;;;;;;;;4340725;33;20810;-74
2023/07/02 07:26:39;;;;;;;5.70;2.78;;;;;;;;;;4340562;33;20048;-74
2023/07/02 07:29:05;;;;;;;6.50;4.07;;;;;;;;;;4340120;33;20062;-75
2023/07/02 07:31:32;;;;;;;6.03;3.30;;;;;;;;;;4338255;33;20069;-73
2023/07/02 07:33:58;;;;;;;2.90;2.58;;;;;;;;;;4340519;33;20052;-73
2023/07/02 07:36:24;;;;;;;5.45;3.10;;;;;;;;;;4340494;33;20739;-74
2023/07/02 07:38:50;;;;;;;4.97;2.67;;;;;;;;;;4339264;33;20056;-73
2023/07/02 07:41:16;;;;;;;3.10;2.80;;;;;;;;;;4336826;33;20067;-76
2023/07/02 07:43:42;;;;;;;4.30;2.70;;;;;;;;;;4340359;33;20333;-73
2023/07/02 07:46:09;;;;;;;6.25;2.33;;;;;;;;;;4340344;33;20075;-73
2023/07/02 07:48:35;;;;;;;5.43;3.95;;;;;;;;;;4340353;33;20053;-74
2023/07/02 07:51:01;;;;;;;3.15;2.62;;;;;;;;;;4340374;33;20048;-74
2023/07/02 07:53:37;;;;;;;3.35;2.85;;;;;;;;;;4339645;33;20446;-74
2023/07/02 07:56:03;;;;;;;2.75;2.55;;;;;;;;;;4340173;33;20036;-74
2023/07/02 07:58:31;;;;;;;7.45;3.22;;;;;;;;;;4340577;33;20041;-74
2023/07/02 08:00:58;;;;;;;18.08;3.28;;;;;;;;;;4339357;33;20437;-74
2023/07/02 08:03:24;;;;;;;10.98;2.65;;;;;;;;;;4338456;33;20163;-77
2023/07/02 08:05:50;;;;;;;3.45;2.50;;;;;;;;;;4340257;33;20044;-73
2023/07/02 08:08:16;;;;;;;4.07;2.40;;;;;;;;;;4339012;33;20086;-74
2023/07/02 08:10:42;;;;;;;2.35;2.25;;;;;;;;;;4340269;33;20036;-73
2023/07/02 08:13:08;;;;;;;2.22;2.05;;;;;;;;;;4340225;33;20105;-74
2023/07/02 08:15:34;;;;;;;3.50;2.30;;;;;;;;;;4338177;33;20370;-75
2023/07/02 08:18:01;;;;;;;3.95;2.28;;;;;;;;;;4340245;33;20052;-73
2023/07/02 08:20:27;;;;;;;4.47;2.58;;;;;;;;;;4339936;33;20066;-74
2023/07/02 08:22:53;;;;;;;2.45;1.90;;;;;;;;;;4340138;33;20556;-74
2023/07/02 08:25:27;;;;;;;3.65;1.77;;;;;;;;;;4338721;33;20381;-74
2023/07/02 08:27:53;;;;;;;4.47;2.05;;;;;;;;;;4337685;33;20052;-74
2023/07/02 08:30:19;;;;;;;6.32;2.17;;;;;;;;;;4342843;33;20093;-74
2023/07/02 08:32:45;;;;;;;2.75;1.50;;;;;;;;;;4341963;33;20373;-74
2023/07/02 08:35:11;;;;;;;2.30;1.70;;;;;;;;;;4342871;33;20036;-73
2023/07/02 08:37:38;;;;;;;4.05;1.95;;;;;;;;;;4342538;33;20078;-76
2023/07/02 08:40:04;;;;;;;2.45;2.25;;;;;;;;;;4341024;33;20051;-75
2023/07/02 08:42:32;;;;;;;8.88;2.20;;;;;;;;;;4342497;33;20310;-75
2023/07/02 08:44:59;;;;;;;3.47;1.65;;;;;;;;;;4341205;33;20084;-74
2023/07/02 08:47:25;;;;;;;17.48;2.20;;;;;;;;;;4342717;33;20056;-73
2023/07/02 08:49:51;;;;;;;7.03;2.00;;;;;;;;;;4342503;33;20441;-74
2023/07/02 08:52:17;;;;;;;3.78;1.70;;;;;;;;;;4340588;33;20051;-75
2023/07/02 08:54:43;;;;;;;1.80;1.70;;;;;;;;;;4342882;33;20090;-74
2023/07/02 08:57:09;;;;;;;3.70;1.62;;;;;;;;;;4342620;33;20082;-73
2023/07/02 08:59:36;;;;;;;1.65;1.55;;;;;;;;;;4310978;33;20480;-74
2023/07/02 09:02:02;;;;;;;1.37;1.37;;;;;;;;;;4308826;33;20044;-77
2023/07/02 09:04:28;;;;;;;1.60;1.50;;;;;;;;;;4308833;33;20135;-74
2023/07/02 09:07:05;;;;;;;12.63;1.85;;;;;;;;;;4310918;33;20406;-74
2023/07/02 09:09:31;;;;;;;2.92;1.30;;;;;;;;;;4310629;33;20360;-74
2023/07/02 09:11:57;;;;;;;2.78;1.80;;;;;;;;;;4307737;33;20063;-75
2023/07/02 09:14:30;;;;;;;6.05;1.85;;;;;;;;;;4309967;33;20044;-73
2023/07/02 09:17:08;;;;;;;3.75;1.37;;;;;;;;;;4310510;33;20078;-75
2023/07/02 09:19:35;;;;;;;1.50;1.40;;;;;;;;;;4310706;33;20366;-75
2023/07/02 09:22:01;;;;;;;2.17;1.95;;;;;;;;;;4308785;33;20074;-74
2023/07/02 09:24:29;;;;;;;1.70;1.60;;;;;;;;;;4309522;33;20041;-73
2023/07/02 09:26:57;;;;;;;1.98;1.70;;;;;;;;;;4310448;33;20418;-73
2023/07/02 09:29:28;;;;;;;2.08;1.70;;;;;;;;;;4310627;33;20059;-73
2023/07/02 09:32:07;;;;;;;1.45;1.45;;;;;;;;;;4340482;33;20488;-75
2023/07/02 09:34:34;;;;;;;3.87;1.45;;;;;;;;;;4340853;33;20048;-74
2023/07/02 09:37:02;;;;;;;1.85;1.75;;;;;;;;;;4342361;33;20051;-74
2023/07/02 09:39:29;;;;;;;6.30;1.70;;;;;;;;;;4341973;33;20048;-73
2023/07/02 09:41:57;;;;;;;8.35;1.80;;;;;;;;;;4340264;33;20048;-76
2023/07/02 09:44:27;;;;;;;2.37;1.60;;;;;;;;;;4342154;33;20048;-74
2023/07/02 09:47:02;;;;;;;6.37;1.42;;;;;;;;;;4342245;33;20041;-73
2023/07/02 09:49:31;;;;;;;1.30;1.30;;;;;;;;;;4324367;33;20063;-74
2023/07/02 09:51:59;;;;;;;1.30;1.30;;;;;;;;;;4323220;33;20468;-73
2023/07/02 09:54:24;;;;;;;2.30;1.62;;;;;;;;;;4324732;33;20522;-75
2023/07/02 09:56:51;;;;;;;7.87;1.70;;;;;;;;;;4324882;33;20066;-75
2023/07/02 09:59:17;;;;;;;1.73;1.62;;;;;;;;;;4324954;33;20040;-74
2023/07/02 10:01:43;;;;;;;1.45;1.45;;;;;;;;;;4321734;33;20060;-78
2023/07/02 10:04:11;;;;;;;3.70;1.58;;;;;;;;;;4324561;33;20308;-73
2023/07/02 10:06:45;;;;;;;1.52;1.33;;;;;;;;;;4324521;33;20077;-74
2023/07/02 10:09:11;;;;;;;1.20;1.20;;;;;;;;;;4324288;33;20054;-74
2023/07/02 10:11:41;;;;;;;4.28;1.30;;;;;;;;;;4322258;33;20045;-75
2023/07/02 10:14:08;;;;;;;7.57;1.73;;;;;;;;;;4324031;33;20048;-75
2023/07/02 10:16:48;;;;;;;6.20;2.10;;;;;;;;;;4324690;33;20073;-73
2023/07/02 10:19:16;;;;;;;2.60;1.98;;;;;;;;;;4323686;33;20036;-74
2023/07/02 10:21:45;;;;;;;3.08;2.12;;;;;;;;;;4339169;33;20047;-73
2023/07/02 10:24:15;;;;;;;5.80;2.47;;;;;;;;;;4340349;33;20041;-73
2023/07/02 10:26:56;;;;;;;2.62;2.10;;;;;;;;;;4341562;33;20052;-74
2023/07/02 10:29:24;;;;;;;4.22;2.30;;;;;;;;;;4339197;33;20032;-74
2023/07/02 10:31:52;;;;;;;9.70;3.50;;;;;;;;;;4339950;33;20327;-73
2023/07/02 10:34:34;;;;;;;4.35;3.15;;;;;;;;;;4309414;33;20045;-73
2023/07/02 10:37:06;;;;;;;3.25;2.30;;;;;;;;;;4305210;33;20045;-74
2023/07/02 10:39:38;;;;;;;4.57;2.53;;;;;;;;;;4307995;33;20045;-73
2023/07/02 10:42:06;;;;;;;12.65;2.75;;;;;;;;;;4309350;33;20504;-74
2023/07/02 10:44:32;;;;;;;3.78;2.33;;;;;;;;;;4308601;33;20051;-73
2023/07/02 10:47:04;;;;;;;2.37;2.17;;;;;;;;;;4307818;33;20041;-76
2023/07/02 10:49:32;;;;;;;3.15;2.62;;;;;;;;;;4307853;33;20598;-73
2023/07/02 10:52:01;;;;;;;2.00;1.90;;;;;;;;;;4292821;33;20048;-72
2023/07/02 10:54:39;;;;;;;3.40;2.17;;;;;;;;;;4295529;33;20391;-73
2023/07/02 10:57:06;;;;;;;5.93;2.60;;;;;;;;;;4292626;33;20053;-74
2023/07/02 10:59:32;;;;;;;4.60;3.20;;;;;;;;;;4279268;33;20068;-74
2023/07/02 11:02:06;;;;;;;4.03;1.92;;;;;;;;;;4479625;28;20075;-73
2023/07/02 11:04:33;;;;;;;2.00;1.90;;;;;;;;;;4248388;33;20426;-74
2023/07/02 11:07:02;;;;;;;2.70;1.80;;;;;;;;;;4277832;33;20277;-73
2023/07/02 11:09:28;;;;;;;5.12;1.75;;;;;;;;;;4279759;33;20101;-73
2023/07/02 11:11:56;;;;;;;2.20;2.10;;;;;;;;;;4280126;33;20029;-73
2023/07/02 11:14:32;;;;;;;1.75;1.65;;;;;;;;;;4278993;33;20071;-73
2023/07/02 11:16:59;;;;;;;1.90;1.80;;;;;;;;;;4278687;33;20110;-73
2023/07/02 11:19:25;;;;;;;5.53;2.00;;;;;;;;;;4279373;33;20075;-72
2023/07/02 11:21:52;;;;;;;3.25;1.67;;;;;;;;;;4280170;33;20075;-72
2023/07/02 11:24:26;;;;;;;9.95;1.58;;;;;;;;;;4278936;33;20095;-77
2023/07/02 11:26:52;;;;;;;2.22;1.67;;;;;;;;;;4280016;33;20422;-74
2023/07/02 11:29:19;;;;;;;1.50;1.50;;;;;;;;;;4279781;33;20112;-73
2023/07/02 11:31:45;;;;;;;1.58;1.58;;;;;;;;;;4278694;33;20882;-73
2023/07/02 11:34:12;;;;;;;1.73;1.62;;;;;;;;;;4278881;33;20066;-75
2023/07/02 11:36:38;;;;;;;11.52;1.55;;;;;;;;;;4276528;33;20905;-73
2023/07/02 11:39:05;;;;;;;2.05;1.50;;;;;;;;;;4283190;33;20037;-74
2023/07/02 11:41:37;;;;;;;8.27;1.80;;;;;;;;;;4290612;33;20037;-74
2023/07/02 11:44:04;;;;;;;1.98;1.30;;;;;;;;;;4274948;33;20464;-77
2023/07/02 11:46:30;;;;;;;3.03;1.48;;;;;;;;;;4275118;33;20057;-74
2023/07/02 11:48:56;;;;;;;1.42;1.42;;;;;;;;;;4269522;33;20054;-74
2023/07/02 11:51:23;;;;;;;2.28;1.35;;;;;;;;;;4272060;33;20049;-75
2023/07/02 11:53:49;;;;;;;2.35;1.40;;;;;;;;;;4271391;33;20046;-74
2023/07/02 11:56:15;;;;;;;1.05;1.05;;;;;;;;;;4266117;33;20346;-75
2023/07/02 11:58:42;;;;;;;3.05;1.17;;;;;;;;;;4272346;33;20062;-74
2023/07/02 12:01:14;;;;;;;5.93;1.58;;;;;;;;;;4274451;33;20067;-74
2023/07/02 12:03:41;;;;;;;6.10;1.67;;;;;;;;;;4247099;33;20034;-74
2023/07/02 12:06:07;;;;;;;1.65;1.50;;;;;;;;;;4246243;33;20039;-77
2023/07/02 12:08:33;;;;;;;2.92;1.27;;;;;;;;;;4270102;33;20050;-75
2023/07/02 12:10:59;;;;;;;1.58;1.48;;;;;;;;;;4274357;33;20045;-75
2023/07/02 12:13:25;;;;;;;1.48;1.33;;;;;;;;;;4272330;33;20129;-74
2023/07/02 12:15:51;;;;;;;1.33;1.30;;;;;;;;;;4259760;33;20088;-74
2023/07/02 12:18:18;;;;;;;1.50;1.40;;;;;;;;;;4269366;33;20996;-76
2023/07/02 12:20:44;;;;;;;1.27;1.20;;;;;;;;;;4297965;33;20136;-73
2023/07/02 12:23:11;;;;;;;2.55;1.30;;;;;;;;;;4315533;33;20049;-74
2023/07/02 12:25:37;;;;;;;1.30;1.20;;;;;;;;;;4313665;33;20051;-73
2023/07/02 12:28:04;;;;;;;9.23;1.98;;;;;;;;;;4316151;33;20890;-74
2023/07/02 12:30:30;;;;;;;2.78;1.40;;;;;;;;;;4312825;33;20040;-75
2023/07/02 12:32:57;;;;;;;5.40;1.27;;;;;;;;;;4316172;33;20082;-74
2023/07/02 12:35:23;;;;;;;1.40;1.30;;;;;;;;;;4339477;33;20036;-74
2023/07/02 12:37:50;;;;;;;3.58;1.75;;;;;;;;;;4344435;33;20409;-75
2023/07/02 12:40:17;;;;;;;6.50;1.48;;;;;;;;;;4346848;33;20047;-74
2023/07/02 12:42:44;;;;;;;1.50;1.40;;;;;;;;;;4343992;33;20485;-73
2023/07/02 12:45:11;;;;;;;1.33;1.23;;;;;;;;;;4343519;33;20741;-74
2023/07/02 12:47:38;;;;;;;4.35;1.05;;;;;;;;;;4341273;33;20058;-74
2023/07/02 12:50:04;;;;;;;3.80;1.48;;;;;;;;;;4340925;33;20049;-73
2023/07/02 12:52:31;;;;;;;2.12;2.03;;;;;;;;;;4310150;33;20074;-75
2023/07/02 12:54:57;;;;;;;2.17;1.37;;;;;;;;;;4310945;33;20494;-74
2023/07/02 12:57:23;;;;;;;3.42;2.12;;;;;;;;;;4310983;33;20071;-74
2023/07/02 12:59:49;;;;;;;1.65;1.50;;;;;;;;;;4313670;33;20041;-74
2023/07/02 13:02:15;;;;;;;1.60;1.50;;;;;;;;;;4310277;33;20079;-74
2023/07/02 13:04:41;;;;;;;7.93;1.55;;;;;;;;;;4310922;33;20040;-74
2023/07/02 13:07:07;;;;;;;1.80;1.70;;;;;;;;;;4310215;33;20057;-73
2023/07/02 13:12:07;;;;;;;5.20;1.50;;;;;;;;;;4309774;33;20068;-74
2023/07/02 13:14:34;;;;;;;1.92;1.30;;;;;;;;;;4296315;33;20041;-75
2023/07/02 13:17:00;;;;;;;1.35;1.35;;;;;;;;;;4296684;33;20611;-73
2023/07/02 13:19:26;;;;;;;5.85;1.30;;;;;;;;;;4296431;33;20067;-73
2023/07/02 13:21:52;;;;;;;5.22;1.25;;;;;;;;;;4296342;33;20172;-73
2023/07/02 13:24:18;;;;;;;7.50;1.75;;;;;;;;;;4331376;33;20076;-75
2023/07/02 13:26:45;;;;;;;1.58;1.48;;;;;;;;;;4340615;33;20401;-73
2023/07/02 13:29:11;;;;;;;1.12;1.12;;;;;;;;;;4342500;33;20073;-73
2023/07/02 13:31:37;;;;;;;1.17;1.15;;;;;;;;;;4342155;33;20073;-74
2023/07/02 13:34:03;;;;;;;2.33;2.05;;;;;;;;;;4342141;33;20107;-74
2023/07/02 13:36:29;;;;;;;1.67;1.10;;;;;;;;;;4341731;33;20074;-76
2023/07/02 13:38:55;;;;;;;4.00;1.37;;;;;;;;;;4341025;33;20395;-73
2023/07/02 13:41:21;;;;;;;5.80;1.70;;;;;;;;;;4342710;33;20051;-73
2023/07/02 13:43:48;;;;;;;7.07;1.42;;;;;;;;;;4343349;33;20066;-73
2023/07/02 13:46:14;;;;;;;1.48;1.48;;;;;;;;;;4342694;33;20056;-74
2023/07/02 13:48:40;;;;;;;1.37;1.23;;;;;;;;;;4340996;33;20134;-75
2023/07/02 13:51:08;;;;;;;1.60;1.60;;;;;;;;;;4341833;33;20448;-74
2023/07/02 13:53:34;;;;;;;1.45;1.45;;;;;;;;;;4343247;33;20059;-74
2023/07/02 13:56:00;;;;;;;1.37;1.30;;;;;;;;;;4342615;33;20070;-74
2023/07/02 13:58:26;;;;;;;1.55;1.40;;;;;;;;;;4342652;33;20066;-75
2023/07/02 14:00:52;;;;;;;1.45;1.30;;;;;;;;;;4342138;33;20066;-76
2023/07/02 14:03:19;;;;;;;4.25;1.50;;;;;;;;;;4342392;33;20685;-74
2023/07/02 14:05:45;;;;;;;1.58;1.48;;;;;;;;;;4339456;33;20421;-74
2023/07/02 14:08:11;;;;;;;1.40;1.30;;;;;;;;;;4339795;33;20082;-75
2023/07/02 14:10:37;;;;;;;3.80;1.60;;;;;;;;;;4339145;33;20449;-75
2023/07/02 14:13:10;;;;;;;1.60;1.50;;;;;;;;;;4338240;33;20062;-76
2023/07/02 14:15:36;;;;;;;2.80;1.42;;;;;;;;;;4339087;33;20060;-75
2023/07/02 14:18:02;;;;;;;1.98;1.58;;;;;;;;;;4338948;33;20070;-75
2023/07/02 14:20:28;;;;;;;2.45;2.05;;;;;;;;;;4339099;33;20098;-74
2023/07/02 14:22:54;;;;;;;1.52;1.37;;;;;;;;;;4337246;33;20132;-78
2023/07/02 14:25:21;;;;;;;1.85;1.75;;;;;;;;;;4336351;33;20392;-75
2023/07/02 14:27:46;;;;;;;3.17;1.37;;;;;;;;;;4337760;33;20029;-75
2023/07/02 14:30:13;;;;;;;3.50;1.77;;;;;;;;;;4337457;33;20058;-76
2023/07/02 14:32:40;;;;;;;1.65;1.50;;;;;;;;;;4308259;33;20439;-75
2023/07/02 14:35:06;;;;;;;4.53;1.35;;;;;;;;;;4308177;33;20052;-76
2023/07/02 14:37:32;;;;;;;5.20;1.25;;;;;;;;;;4295941;33;20457;-76
2023/07/02 14:39:59;;;;;;;2.17;1.60;;;;;;;;;;4294720;33;20045;-75
2023/07/02 14:42:25;;;;;;;10.32;1.42;;;;;;;;;;4295020;33;20045;-75
2023/07/02 14:44:51;;;;;;;2.22;1.73;;;;;;;;;;4293749;33;20053;-76
2023/07/02 14:47:17;;;;;;;9.02;1.50;;;;;;;;;;4293014;33;20074;-75
2023/07/02 14:49:43;;;;;;;2.92;1.45;;;;;;;;;;4295081;33;20518;-75
2023/07/02 14:52:10;;;;;;;1.35;1.35;;;;;;;;;;4294800;33;20077;-75
2023/07/02 14:54:36;;;;;;;1.85;1.23;;;;;;;;;;4294072;33;20067;-73
2023/07/02 14:57:02;;;;;;;9.73;1.30;;;;;;;;;;4294700;33;20364;-74
2023/07/02 14:59:29;;;;;;;1.85;1.75;;;;;;;;;;4307675;33;20464;-76
2023/07/02 15:01:55;;;;;;;3.45;1.50;;;;;;;;;;4307958;33;20090;-74
2023/07/02 15:04:21;;;;;;;1.35;1.35;;;;;;;;;;4319935;33;20044;-74
2023/07/02 15:06:47;;;;;;;4.43;1.52;;;;;;;;;;4323070;33;20086;-75
2023/07/02 15:09:13;;;;;;;6.12;1.80;;;;;;;;;;4323929;33;20398;-76
2023/07/02 15:11:39;;;;;;;1.50;1.50;;;;;;;;;;4321624;33;20075;-76
2023/07/02 15:14:05;;;;;;;1.40;1.40;;;;;;;;;;4323278;33;20299;-75
2023/07/02 15:16:32;;;;;;;1.50;1.40;;;;;;;;;;4323428;33;20065;-74
2023/07/02 15:18:58;;;;;;;6.87;2.25;;;;;;;;;;4323188;33;20590;-75
2023/07/02 15:21:24;;;;;;;2.35;1.73;;;;;;;;;;4323804;33;20478;-74
2023/07/02 15:23:50;;;;;;;7.12;2.20;;;;;;;;;;4321725;33;20056;-75
2023/07/02 15:26:16;;;;;;;4.15;2.08;;;;;;;;;;4322057;33;20115;-74
2023/07/02 15:28:43;;;;;;;2.35;1.70;;;;;;;;;;4308909;33;20045;-75
2023/07/02 15:31:10;;;;;;;1.62;1.42;;;;;;;;;;4320239;33;20160;-74
2023/07/02 15:33:37;;;;;;;2.60;1.30;;;;;;;;;;4322688;33;20048;-75
2023/07/02 15:36:03;;;;;;;1.55;1.52;;;;;;;;;;4322569;33;20062;-74
2023/07/02 15:38:30;;;;;;;2.40;1.50;;;;;;;;;;4323111;33;20044;-74
2023/07/02 15:41:11;;;;;;;3.92;1.55;;;;;;;;;;4322907;33;20055;-74
2023/07/02 15:43:38;;;;;;;1.10;1.10;;;;;;;;;;4321702;33;20044;-74
2023/07/02 15:46:04;;;;;;;7.45;2.40;;;;;;;;;;4323249;33;20044;-75
2023/07/02 15:48:30;;;;;;;3.92;1.60;;;;;;;;;;4322761;33;20058;-76
2023/07/02 15:51:03;;;;;;;1.80;1.70;;;;;;;;;;4308687;33;20049;-75
2023/07/02 15:53:29;;;;;;;1.67;1.30;;;;;;;;;;4308773;33;20045;-75
2023/07/02 15:55:56;;;;;;;1.70;1.60;;;;;;;;;;4305175;33;20553;-75
2023/07/02 15:58:23;;;;;;;1.30;1.20;;;;;;;;;;4308783;33;20781;-74
2023/07/02 16:00:49;;;;;;;21.25;2.05;;;;;;;;;;4308624;33;20078;-73
2023/07/02 16:03:15;;;;;;;4.22;1.55;;;;;;;;;;4292394;33;20083;-74
2023/07/02 16:05:41;;;;;;;3.25;1.65;;;;;;;;;;4293863;33;20042;-76
2023/07/02 16:08:07;;;;;;;3.42;1.60;;;;;;;;;;4276376;33;20083;-74
2023/07/02 16:10:34;;;;;;;3.20;2.12;;;;;;;;;;4279560;33;20465;-74
2023/07/02 16:13:00;;;;;;;1.70;1.60;;;;;;;;;;4279764;33;20057;-73
2023/07/02 16:15:26;;;;;;;5.12;1.60;;;;;;;;;;4279353;33;20486;-74
2023/07/02 16:17:52;;;;;;;2.85;1.30;;;;;;;;;;4278420;33;20064;-74
2023/07/02 16:20:19;;;;;;;1.52;1.48;;;;;;;;;;4277756;33;20076;-75
2023/07/02 16:22:45;;;;;;;5.55;1.37;;;;;;;;;;4281586;33;20279;-74
2023/07/02 16:25:11;;;;;;;6.32;1.48;;;;;;;;;;4278685;33;20063;-74
2023/07/02 16:27:37;;;;;;;10.13;1.80;;;;;;;;;;4277838;33;20609;-74
2023/07/02 16:30:04;;;;;;;2.03;1.52;;;;;;;;;;4279524;33;20045;-75
2023/07/02 16:32:31;;;;;;;5.62;1.50;;;;;;;;;;4277528;33;20485;-74
2023/07/02 16:34:57;;;;;;;2.70;1.35;;;;;;;;;;4279348;33;20396;-74
2023/07/02 16:37:23;;;;;;;4.65;1.73;;;;;;;;;;4279200;33;20053;-74
2023/07/02 16:39:49;;;;;;;1.85;1.70;;;;;;;;;;4301238;33;20430;-75
2023/07/02 16:42:16;;;;;;;2.47;1.75;;;;;;;;;;4308042;33;20468;-74
2023/07/02 16:44:42;;;;;;;2.85;1.87;;;;;;;;;;4305733;33;20061;-74